Time;durP1;ratioP1;P1;durP2;ratioP2;P2;SDS_P1;SDS_P2;PMS_P1;PMS_P2;Temp;Humidity;BMP_temperature;BMP_pressure;BME280_temperature;BME280_humidity;BME280_pressure;Samples;Min_cycle;Max_cycle;Signal;HPM_P1;HPM_P2
2023/11/30 00:02:21;;;;;;;41.70;18.90;;;;;;;-3.61;85.57;99016.09;130959;1295;22627;-83
2023/11/30 00:05:22;;;;;;;39.10;20.00;;;;;;;-3.57;85.92;99012.52;131181;1298;22541;-81
2023/11/30 00:08:22;;;;;;;43.50;18.90;;;;;;;-3.53;86.04;99009.69;131020;1301;22579;-84
2023/11/30 00:11:23;;;;;;;36.50;19.00;;;;;;;-3.50;86.09;99010.85;131277;1301;22542;-82
2023/11/30 00:14:23;;;;;;;39.50;18.10;;;;;;;-3.47;86.25;99011.13;130983;1298;22562;-84
2023/11/30 00:17:24;;;;;;;38.90;18.40;;;;;;;-3.43;86.22;99008.63;131128;1294;22591;-83
2023/11/30 00:20:24;;;;;;;39.20;19.40;;;;;;;-3.39;86.50;99014.25;131217;1302;22647;-83
2023/11/30 00:23:25;;;;;;;35.60;18.30;;;;;;;-3.35;86.44;99011.36;131401;1298;23167;-82
2023/11/30 00:26:25;;;;;;;37.50;19.10;;;;;;;-3.31;86.51;99017.67;131214;1291;22690;-83
2023/11/30 00:29:29;;;;;;;38.60;19.50;;;;;;;-3.28;86.64;99017.97;131351;1298;23896;-83
2023/11/30 00:32:29;;;;;;;34.20;18.90;;;;;;;-3.25;86.98;99011.72;131275;1298;24234;-82
2023/11/30 00:35:30;;;;;;;35.10;17.90;;;;;;;-3.21;86.74;99014.19;131024;1295;22604;-82
2023/11/30 00:38:30;;;;;;;36.60;19.90;;;;;;;-3.17;86.99;99014.40;131090;1298;26685;-83
2023/11/30 00:41:31;;;;;;;38.20;18.30;;;;;;;-3.12;86.98;99017.23;131143;1295;22578;-82
2023/11/30 00:44:31;;;;;;;37.80;18.10;;;;;;;-3.07;87.13;99022.61;131213;1297;22703;-82
2023/11/30 00:47:32;;;;;;;35.60;18.40;;;;;;;-3.03;87.49;99020.25;131290;1298;22804;-82
2023/11/30 00:50:32;;;;;;;35.50;17.50;;;;;;;-2.98;87.49;99024.04;131183;1298;23977;-81
2023/11/30 00:53:33;;;;;;;33.70;17.90;;;;;;;-2.94;87.43;99026.14;131356;1298;25527;-83
2023/11/30 00:56:33;;;;;;;32.40;16.70;;;;;;;-2.90;87.51;99030.40;131170;1300;24049;-81
2023/11/30 00:59:34;;;;;;;32.70;17.10;;;;;;;-2.86;87.58;99031.80;131328;1301;22614;-81
2023/11/30 01:02:35;;;;;;;30.20;16.30;;;;;;;-2.83;87.59;99035.60;131355;1298;22588;-83
2023/11/30 01:05:37;;;;;;;35.30;17.30;;;;;;;-2.80;87.56;99035.19;131124;1301;22567;-81
2023/11/30 01:08:38;;;;;;;34.70;17.90;;;;;;;-2.76;87.52;99038.59;131484;1295;22596;-84
2023/11/30 01:11:43;;;;;;;32.90;17.70;;;;;;;-2.74;87.59;99034.74;131277;1298;22879;-84
2023/11/30 01:14:43;;;;;;;33.30;17.40;;;;;;;-2.70;87.52;99038.16;131260;1295;22623;-83
2023/11/30 01:17:44;;;;;;;30.70;17.00;;;;;;;-2.67;87.77;99036.41;131460;1298;22566;-85
2023/11/30 01:20:45;;;;;;;31.80;17.60;;;;;;;-2.65;87.84;99039.70;131050;1299;22572;-81
2023/11/30 01:23:45;;;;;;;27.90;16.50;;;;;;;-2.63;87.68;99036.23;131276;1299;22592;-80
2023/11/30 01:26:46;;;;;;;32.90;17.50;;;;;;;-2.61;88.00;99033.86;131327;1301;24311;-81
2023/11/30 01:29:47;;;;;;;31.10;17.10;;;;;;;-2.58;88.06;99035.92;131575;1295;22597;-83
2023/11/30 01:32:48;;;;;;;35.30;17.30;;;;;;;-2.56;87.96;99039.92;131234;1298;23211;-83
2023/11/30 01:35:49;;;;;;;33.40;17.70;;;;;;;-2.55;87.84;99047.44;131204;1301;25355;-82
2023/11/30 01:38:49;;;;;;;31.40;16.80;;;;;;;-2.53;87.85;99048.20;131164;1297;22629;-82
2023/11/30 01:41:50;;;;;;;33.00;17.50;;;;;;;-2.53;87.95;99046.94;131146;1290;24766;-81
2023/11/30 01:44:50;;;;;;;36.50;16.80;;;;;;;-2.52;87.98;99042.07;131089;1299;22563;-83
2023/11/30 01:47:52;;;;;;;36.20;17.90;;;;;;;-2.50;87.97;99043.14;131094;1299;22675;-83
2023/11/30 01:50:55;;;;;;;30.70;16.70;;;;;;;-2.49;87.96;99037.86;131083;1298;23791;-82
2023/11/30 01:53:59;;;;;;;34.10;17.40;;;;;;;-2.47;87.89;99033.71;131474;1298;22563;-81
2023/11/30 01:56:59;;;;;;;33.60;16.60;;;;;;;-2.44;88.04;99030.73;131148;1301;22548;-81
2023/11/30 02:00:00;;;;;;;31.40;16.80;;;;;;;-2.41;88.00;99026.73;131264;1298;24421;-82
2023/11/30 02:03:01;;;;;;;31.90;16.50;;;;;;;-2.38;87.96;99033.27;131186;1298;22586;-80
2023/11/30 02:06:02;;;;;;;;;;;;;;;-2.36;88.17;99027.04;130889;1301;23320;-83
2023/11/30 02:09:03;;;;;;;24.50;14.60;;;;;;;-2.33;88.08;99028.70;131454;1298;23282;-81
2023/11/30 02:12:05;;;;;;;33.90;17.30;;;;;;;-2.31;88.24;99024.20;131182;1298;25510;-82
2023/11/30 02:15:06;;;;;;;30.60;16.50;;;;;;;-2.28;88.20;99021.73;131303;1297;148494;-81
2023/11/30 02:18:07;;;;;;;31.90;17.60;;;;;;;-2.25;88.05;99020.52;131225;1291;23943;-82
2023/11/30 02:21:08;;;;;;;32.00;16.80;;;;;;;-2.23;88.30;99018.52;131288;1298;24266;-82
2023/11/30 02:24:08;;;;;;;31.60;16.50;;;;;;;-2.22;88.31;99017.04;131571;1294;23329;-82
2023/11/30 02:27:09;;;;;;;33.60;18.80;;;;;;;-2.22;88.47;99020.66;131267;1297;22579;-82
2023/11/30 02:30:11;;;;;;;;;;;;;;;-2.21;88.41;99016.98;131202;1299;22539;-83
2023/11/30 02:33:14;;;;;;;33.60;16.50;;;;;;;-2.21;88.38;99021.97;131244;1292;22578;-84
2023/11/30 02:36:15;;;;;;;30.00;16.60;;;;;;;-2.20;88.56;99023.11;131238;1298;22774;-83
2023/11/30 02:39:15;;;;;;;31.70;17.60;;;;;;;-2.18;88.37;99022.80;131310;1299;22557;-82
2023/11/30 02:42:16;;;;;;;33.60;17.10;;;;;;;-2.16;88.34;99022.15;131410;1298;24270;-82
2023/11/30 02:45:17;;;;;;;27.50;16.10;;;;;;;-2.14;88.69;99021.33;131507;1298;22645;-83
2023/11/30 02:48:17;;;;;;;29.00;16.70;;;;;;;-2.13;88.78;99028.17;131504;1298;23253;-83
2023/11/30 02:51:18;;;;;;;30.70;17.60;;;;;;;-2.12;88.80;99030.33;131067;1287;22572;-83
2023/11/30 02:54:18;;;;;;;31.30;16.60;;;;;;;-2.13;89.05;99026.75;131317;1294;22603;-82
2023/11/30 02:57:19;;;;;;;28.10;16.60;;;;;;;-2.13;89.17;99025.90;131218;1298;23836;-83
2023/11/30 03:00:19;;;;;;;27.60;16.10;;;;;;;-2.12;89.06;99031.05;131476;1291;22544;-82
2023/11/30 03:03:20;;;;;;;27.80;16.40;;;;;;;-2.12;89.30;99032.03;131300;1289;22577;-83
2023/11/30 03:06:21;;;;;;;29.60;16.60;;;;;;;-2.12;89.35;99033.23;131392;1299;25396;-81
2023/11/30 03:09:21;;;;;;;25.30;15.60;;;;;;;-2.12;89.09;99033.41;131552;1301;24396;-82
2023/11/30 03:12:22;;;;;;;26.20;16.10;;;;;;;-2.11;89.40;99036.50;131131;1298;22612;-83
2023/11/30 03:15:23;;;;;;;27.50;16.00;;;;;;;-2.13;89.27;99034.36;131393;1291;23799;-82
2023/11/30 03:18:23;;;;;;;31.00;17.30;;;;;;;-2.11;89.76;99037.16;131009;1300;23298;-82
2023/11/30 03:21:25;;;;;;;28.60;15.60;;;;;;;-2.10;89.62;99035.90;131443;1291;22567;-84
2023/11/30 03:24:26;;;;;;;24.90;15.10;;;;;;;-2.10;89.52;99034.68;131190;1289;23681;-82
2023/11/30 03:27:26;;;;;;;25.50;16.20;;;;;;;-2.10;89.94;99036.75;131529;1292;22582;-84
2023/11/30 03:30:27;;;;;;;26.80;15.40;;;;;;;-2.10;89.96;99034.67;131698;1298;24411;-81
2023/11/30 03:33:27;;;;;;;27.70;16.20;;;;;;;-2.09;90.13;99034.25;131233;1294;22557;-84
2023/11/30 03:36:28;;;;;;;26.80;17.10;;;;;;;-2.07;90.29;99028.94;131221;1289;22601;-81
2023/11/30 03:39:29;;;;;;;;;;;;;;;-2.04;90.52;99024.38;131362;1298;24282;-81
2023/11/30 03:42:29;;;;;;;26.40;15.40;;;;;;;-2.02;90.69;99028.91;131060;1289;22559;-85
2023/11/30 03:45:32;;;;;;;23.10;14.40;;;;;;;-2.01;90.91;99026.71;131415;1301;22574;-84
2023/11/30 03:48:32;;;;;;;23.60;14.30;;;;;;;-2.00;91.31;99024.20;131188;1298;22779;-82
2023/11/30 03:51:33;;;;;;;24.90;14.90;;;;;;;-1.98;90.86;99027.21;131096;1300;23414;-83
2023/11/30 03:54:34;;;;;;;22.10;14.50;;;;;;;-1.98;90.98;99028.22;131496;1298;22660;-81
2023/11/30 03:57:35;;;;;;;23.40;14.30;;;;;;;-1.96;91.20;99025.66;131116;1297;22692;-82
2023/11/30 04:00:35;;;;;;;23.80;15.00;;;;;;;-1.93;91.59;99025.63;130963;1301;22627;-83
2023/11/30 04:03:35;;;;;;;23.30;14.60;;;;;;;-1.89;91.63;99026.89;130812;1298;23894;-82
2023/11/30 04:06:36;;;;;;;25.90;14.70;;;;;;;-1.86;91.82;99021.77;131205;1298;24307;-81
2023/11/30 04:09:37;;;;;;;26.50;15.40;;;;;;;-1.83;92.07;99017.73;130871;1304;22611;-83
2023/11/30 04:12:38;;;;;;;21.40;13.30;;;;;;;-1.79;92.16;99015.77;131107;1291;22564;-82
2023/11/30 04:15:38;;;;;;;22.40;14.60;;;;;;;-1.77;92.19;99015.93;131155;1298;22556;-83
2023/11/30 04:18:39;;;;;;;20.00;13.30;;;;;;;-1.75;92.14;99016.30;130978;1292;24240;-83
2023/11/30 04:21:40;;;;;;;22.10;14.10;;;;;;;-1.73;92.15;99020.84;131007;1298;23316;-85
2023/11/30 04:24:40;;;;;;;23.00;14.00;;;;;;;-1.71;92.16;99021.59;130974;1282;25499;-82
2023/11/30 04:27:41;;;;;;;21.80;14.90;;;;;;;-1.71;91.92;99018.56;131169;1298;24876;-83
2023/11/30 04:30:41;;;;;;;21.70;14.00;;;;;;;-1.68;92.29;99018.35;131097;1297;23949;-83
2023/11/30 04:33:42;;;;;;;21.80;13.30;;;;;;;-1.66;92.41;99019.10;131262;1294;24268;-86
2023/11/30 04:36:42;;;;;;;22.10;14.10;;;;;;;-1.65;92.31;99015.19;131333;1292;22689;-83
2023/11/30 04:39:43;;;;;;;23.00;14.10;;;;;;;-1.63;92.41;99012.82;131253;1294;23489;-84
2023/11/30 04:42:43;;;;;;;25.90;14.70;;;;;;;-1.62;92.35;99016.02;130863;1301;23867;-83
2023/11/30 04:45:45;;;;;;;21.50;14.70;;;;;;;-1.61;92.47;99015.38;131207;1301;22644;-81
2023/11/30 04:48:45;;;;;;;23.80;14.90;;;;;;;-1.59;92.38;99014.91;131062;1291;22577;-83
2023/11/30 04:51:46;;;;;;;21.80;14.70;;;;;;;-1.57;92.30;99016.85;131085;1292;23541;-83
2023/11/30 04:54:47;;;;;;;24.40;15.00;;;;;;;-1.55;92.51;99009.24;130898;1298;26004;-83
2023/11/30 04:57:48;;;;;;;24.90;15.40;;;;;;;-1.54;92.32;99007.60;130961;1300;24811;-83
2023/11/30 05:00:49;;;;;;;21.70;15.00;;;;;;;-1.53;92.16;99005.13;131242;1298;23726;-84
2023/11/30 05:03:49;;;;;;;19.50;12.90;;;;;;;-1.56;91.94;99003.06;131004;1297;24455;-81
2023/11/30 05:06:50;;;;;;;26.00;16.40;;;;;;;-1.57;92.08;99000.89;131216;1300;24416;-82
2023/11/30 05:09:50;;;;;;;23.70;15.10;;;;;;;-1.61;91.76;98999.30;130994;1303;24394;-83
2023/11/30 05:12:51;;;;;;;21.60;14.60;;;;;;;-1.66;91.92;98997.92;131143;1296;22591;-82
2023/11/30 05:15:51;;;;;;;21.80;15.20;;;;;;;-1.68;91.81;98998.98;131152;1298;22591;-81
2023/11/30 05:18:52;;;;;;;21.70;14.30;;;;;;;-1.73;91.78;98999.48;131030;1294;23618;-85
2023/11/30 05:21:53;;;;;;;26.10;16.80;;;;;;;-1.81;92.17;98998.92;131167;1292;23780;-82
2023/11/30 05:24:53;;;;;;;23.50;15.60;;;;;;;-1.88;92.23;98998.36;131157;1300;22552;-82
2023/11/30 05:27:53;;;;;;;27.90;17.80;;;;;;;-1.92;92.53;98994.52;131001;1292;24903;-83
2023/11/30 05:30:54;;;;;;;26.40;16.90;;;;;;;-1.95;92.42;98997.83;131047;1291;22563;-80
2023/11/30 05:33:54;;;;;;;25.70;16.50;;;;;;;-1.97;92.86;99000.26;131200;1291;26675;-84
2023/11/30 05:36:55;;;;;;;25.10;16.40;;;;;;;-2.02;92.86;99001.00;131342;1298;22559;-80
2023/11/30 05:39:55;;;;;;;27.10;14.90;;;;;;;-2.08;92.56;99006.60;131113;1298;22564;-84
2023/11/30 05:42:56;;;;;;;24.70;16.10;;;;;;;-2.15;93.03;99005.05;130987;1297;25404;-83
2023/11/30 05:45:56;;;;;;;24.00;14.40;;;;;;;-2.18;92.96;99010.54;131866;1298;22601;-80
2023/11/30 05:48:57;;;;;;;23.60;15.40;;;;;;;-2.21;93.04;99012.25;130871;1297;22650;-81
2023/11/30 05:51:58;;;;;;;23.50;14.60;;;;;;;-2.21;93.06;99010.91;130874;1298;22574;-83
2023/11/30 05:54:58;;;;;;;22.90;13.70;;;;;;;-2.22;92.83;99014.92;131006;1294;25378;-81
2023/11/30 05:57:59;;;;;;;22.50;14.30;;;;;;;-2.21;92.77;99018.19;131436;1298;23295;-82
2023/11/30 06:00:59;;;;;;;23.00;15.40;;;;;;;-2.21;92.72;99021.63;131192;1291;22568;-83
2023/11/30 06:04:03;;;;;;;25.50;16.70;;;;;;;-2.22;92.79;99023.27;130696;1299;22599;-85
2023/11/30 06:07:04;;;;;;;22.30;14.30;;;;;;;-2.22;92.94;99021.68;130753;1292;22875;-83
2023/11/30 06:10:10;;;;;;;25.60;14.70;;;;;;;-2.22;93.30;99023.27;130760;1291;23481;-80
2023/11/30 06:13:12;;;;;;;23.90;15.80;;;;;;;-2.23;92.83;99025.13;130690;1292;22572;-80
2023/11/30 06:16:15;;;;;;;28.20;17.90;;;;;;;-2.24;93.05;99032.63;130936;1298;22689;-82
2023/11/30 06:19:16;;;;;;;27.30;16.70;;;;;;;-2.24;93.26;99033.80;130679;1306;22594;-82
2023/11/30 06:22:17;;;;;;;33.50;17.70;;;;;;;-2.20;93.48;99034.59;131100;1298;22645;-79
2023/11/30 06:25:18;;;;;;;26.60;17.30;;;;;;;-2.17;93.96;99032.40;131300;1298;22582;-81
2023/11/30 06:28:20;;;;;;;30.10;20.30;;;;;;;-2.14;94.07;99036.20;131232;1296;25380;-84
2023/11/30 06:31:21;;;;;;;35.50;20.50;;;;;;;-2.11;94.54;99042.67;131330;1291;22597;-80
2023/11/30 06:34:21;;;;;;;31.70;20.00;;;;;;;-2.08;94.64;99048.23;131779;1291;22646;-79
2023/11/30 06:37:22;;;;;;;31.20;18.60;;;;;;;-2.05;94.99;99054.91;131630;1298;22565;-79
2023/11/30 06:40:22;;;;;;;32.40;19.20;;;;;;;-2.02;94.80;99049.54;131412;1299;22560;-82
2023/11/30 06:43:23;;;;;;;29.60;18.10;;;;;;;-1.99;95.10;99050.33;131367;1298;27080;-79
2023/11/30 06:46:24;;;;;;;37.20;18.90;;;;;;;-1.96;95.00;99045.97;131218;1299;22620;-81
2023/11/30 06:49:24;;;;;;;31.50;17.60;;;;;;;-1.93;95.41;99043.98;131322;1301;22559;-80
2023/11/30 06:52:25;;;;;;;33.80;19.60;;;;;;;-1.87;95.74;99045.64;131358;1291;22575;-80
2023/11/30 06:55:25;;;;;;;29.40;17.50;;;;;;;-1.82;95.71;99045.94;131403;1298;23967;-83
2023/11/30 06:58:26;;;;;;;31.60;18.20;;;;;;;-1.75;95.68;99047.37;131304;1298;22616;-82
2023/11/30 07:01:27;;;;;;;28.10;17.60;;;;;;;-1.66;95.88;99047.00;131342;1298;22748;-80
2023/11/30 07:04:28;;;;;;;;;;;;;;;-1.53;95.99;99049.48;131351;1298;22646;-80
2023/11/30 07:07:28;;;;;;;28.30;17.60;;;;;;;-1.40;96.15;99055.42;131401;1301;23325;-81
2023/11/30 07:10:29;;;;;;;30.30;16.80;;;;;;;-1.27;96.05;99054.16;131268;1298;22590;-84
2023/11/30 07:13:29;;;;;;;28.20;17.70;;;;;;;-1.18;95.89;99051.48;131414;1290;25421;-79
2023/11/30 07:16:30;;;;;;;29.80;18.80;;;;;;;-1.08;95.74;99048.29;131289;1298;23909;-80
2023/11/30 07:19:30;;;;;;;28.90;17.70;;;;;;;-1.00;95.73;99049.79;131246;1291;24301;-81
2023/11/30 07:22:31;;;;;;;30.70;19.40;;;;;;;-0.91;95.57;99043.00;131154;1301;22623;-83
2023/11/30 07:25:31;;;;;;;30.80;18.90;;;;;;;-0.73;95.85;99049.75;131322;1291;23382;-80
2023/11/30 07:28:32;;;;;;;30.90;18.90;;;;;;;-0.52;95.60;99049.33;131323;1300;22560;-83
2023/11/30 07:31:32;;;;;;;30.80;19.70;;;;;;;-0.30;95.48;99042.13;131355;1294;22731;-81
2023/11/30 07:34:35;;;;;;;35.90;20.90;;;;;;;-0.11;95.29;99043.73;131255;1301;22720;-81
2023/11/30 07:37:35;;;;;;;23.30;16.30;;;;;;;0.09;95.10;99041.56;131499;1291;22711;-81
2023/11/30 07:40:36;;;;;;;25.50;17.00;;;;;;;0.23;94.37;99033.64;131288;1300;22644;-84
2023/11/30 07:43:36;;;;;;;102.70;50.70;;;;;;;0.34;94.00;99030.27;131342;1299;22847;-83
2023/11/30 07:46:37;;;;;;;33.90;20.40;;;;;;;0.46;93.65;99034.02;131266;1301;22560;-80
2023/11/30 07:49:38;;;;;;;68.00;35.50;;;;;;;0.51;93.26;99040.56;131294;1296;24878;-80
2023/11/30 07:52:38;;;;;;;58.10;31.30;;;;;;;0.63;93.29;99042.09;131356;1291;24297;-84
2023/11/30 07:55:39;;;;;;;34.90;20.10;;;;;;;0.81;93.09;99049.47;131254;1297;22702;-80
2023/11/30 07:58:44;;;;;;;23.40;16.40;;;;;;;1.06;92.88;99051.17;131334;1291;22762;-82
2023/11/30 08:01:44;;;;;;;30.20;18.40;;;;;;;1.29;92.31;99054.55;131016;1298;22569;-84
2023/11/30 08:04:45;;;;;;;30.60;18.10;;;;;;;1.42;91.70;99053.08;131257;1291;22594;-83
2023/11/30 08:07:45;;;;;;;32.10;20.50;;;;;;;1.37;91.19;99047.59;131264;1291;25358;-81
2023/11/30 08:10:45;;;;;;;28.70;18.50;;;;;;;1.19;90.14;99044.60;131383;1298;22594;-85
2023/11/30 08:13:46;;;;;;;31.60;19.00;;;;;;;1.02;90.07;99041.94;131145;1301;22640;-84
2023/11/30 08:16:46;;;;;;;37.10;20.10;;;;;;;0.90;89.91;99044.17;131153;1291;22599;-84
2023/11/30 08:19:48;;;;;;;29.00;18.80;;;;;;;0.76;90.04;99046.55;131475;1291;25420;-83
2023/11/30 08:22:49;;;;;;;32.60;18.70;;;;;;;0.63;89.73;99045.08;131497;1298;22667;-82
2023/11/30 08:25:49;;;;;;;27.40;17.70;;;;;;;0.49;89.68;99048.67;131406;1298;22582;-81
2023/11/30 08:28:50;;;;;;;30.60;17.10;;;;;;;0.36;89.61;99052.56;131354;1297;22735;-80
2023/11/30 08:31:50;;;;;;;27.10;18.10;;;;;;;0.17;89.01;99059.20;131146;1301;24246;-82
2023/11/30 08:34:51;;;;;;;25.90;17.80;;;;;;;-0.01;89.20;99059.45;131235;1294;23332;-80
2023/11/30 08:37:51;;;;;;;27.70;18.70;;;;;;;-0.13;89.63;99060.58;131530;1298;23395;-80
2023/11/30 08:40:52;;;;;;;28.00;17.80;;;;;;;-0.15;90.01;99064.05;131633;1291;22691;-84
2023/11/30 08:43:53;;;;;;;27.60;17.40;;;;;;;-0.11;90.07;99060.27;131779;1297;25320;-84
2023/11/30 08:46:54;;;;;;;31.20;18.60;;;;;;;-0.06;90.19;99060.52;131713;1298;22575;-80
2023/11/30 08:49:55;;;;;;;29.50;17.70;;;;;;;-0.04;89.98;99059.31;131629;1298;22605;-81
2023/11/30 08:52:55;;;;;;;30.80;19.30;;;;;;;-0.03;89.82;99059.40;131783;1298;22610;-81
2023/11/30 08:55:56;;;;;;;28.10;18.30;;;;;;;0.00;89.91;99059.70;131636;1298;26548;-81
2023/11/30 08:58:56;;;;;;;30.40;19.60;;;;;;;0.03;89.73;99058.77;131694;1297;22591;-83
2023/11/30 09:01:57;;;;;;;34.00;20.20;;;;;;;0.04;89.78;99071.20;131585;1294;22784;-82
2023/11/30 09:04:57;;;;;;;31.70;19.60;;;;;;;0.06;89.53;99070.50;131713;1298;22779;-82
2023/11/30 09:07:58;;;;;;;34.70;21.40;;;;;;;0.08;89.58;99073.67;131642;1293;22536;-83
2023/11/30 09:10:58;;;;;;;31.20;20.30;;;;;;;0.09;89.63;99072.54;131777;1298;22558;-80
2023/11/30 09:13:59;;;;;;;33.40;19.10;;;;;;;0.10;89.43;99073.50;131756;1298;24435;-83
2023/11/30 09:17:00;;;;;;;28.90;18.40;;;;;;;0.15;89.48;99073.95;131664;1298;25274;-80
2023/11/30 09:20:02;;;;;;;38.30;22.40;;;;;;;0.18;89.48;99075.45;131663;1297;25359;-81
2023/11/30 09:23:04;;;;;;;55.70;30.80;;;;;;;0.18;89.20;99077.50;131698;1297;23297;-82
2023/11/30 09:26:06;;;;;;;38.20;23.00;;;;;;;0.18;88.97;99071.77;131400;1298;22578;-81
2023/11/30 09:29:07;;;;;;;31.90;20.50;;;;;;;0.13;88.70;99070.42;132066;1291;22597;-82
2023/11/30 09:32:07;;;;;;;33.00;20.90;;;;;;;0.06;88.67;99072.45;131418;1298;22568;-82
2023/11/30 09:35:08;;;;;;;34.60;22.40;;;;;;;0.01;88.47;99067.45;131730;1299;22667;-83
2023/11/30 09:38:09;;;;;;;36.70;21.80;;;;;;;0.04;88.85;99063.35;131750;1295;22702;-81
2023/11/30 09:41:13;;;;;;;35.40;21.50;;;;;;;0.12;89.20;99060.98;131717;1298;22553;-80
2023/11/30 09:44:13;;;;;;;43.10;22.70;;;;;;;0.23;89.12;99058.48;131399;1297;22598;-81
2023/11/30 09:47:14;;;;;;;37.00;22.20;;;;;;;0.33;88.81;99048.78;131543;1298;22563;-81
2023/11/30 09:50:15;;;;;;;41.50;22.70;;;;;;;0.37;88.64;99044.61;131556;1295;23510;-81
2023/11/30 09:53:16;;;;;;;36.90;22.70;;;;;;;0.39;88.35;99045.00;131647;1298;22603;-79
2023/11/30 09:56:16;;;;;;;40.40;23.40;;;;;;;0.44;88.58;99042.34;131590;1293;25376;-79
2023/11/30 09:59:17;;;;;;;41.40;22.90;;;;;;;0.56;88.79;99036.46;131298;1298;24402;-80
2023/11/30 10:02:23;;;;;;;35.10;22.00;;;;;;;0.70;88.73;99035.23;131622;1298;22563;-81
2023/11/30 10:05:25;;;;;;;35.00;21.20;;;;;;;0.87;88.56;99025.46;132246;1294;22574;-79
2023/11/30 10:08:25;;;;;;;35.00;19.60;;;;;;;1.08;88.62;99025.00;131654;1298;22573;-80
2023/11/30 10:11:26;;;;;;;32.90;19.40;;;;;;;1.46;88.49;99015.61;131130;1298;23523;-80
2023/11/30 10:14:26;;;;;;;31.70;19.80;;;;;;;1.50;87.32;99011.63;131383;1288;22711;-83
2023/11/30 10:17:27;;;;;;;37.70;21.00;;;;;;;1.55;87.05;99011.88;131484;1298;22582;-81
2023/11/30 10:20:28;;;;;;;32.30;20.00;;;;;;;1.75;87.72;99010.59;131691;1297;22601;-79
2023/11/30 10:23:32;;;;;;;35.00;19.20;;;;;;;1.98;87.05;99005.91;131759;1298;24294;-84
2023/11/30 10:26:34;;;;;;;35.20;20.60;;;;;;;2.15;87.06;99002.38;131422;1298;24221;-83
2023/11/30 10:29:41;;;;;;;30.70;20.20;;;;;;;2.51;86.36;98998.75;131419;1298;24269;-81
2023/11/30 10:32:44;;;;;;;29.60;17.70;;;;;;;2.86;86.35;98992.88;132344;1295;24799;-80
2023/11/30 10:35:45;;;;;;;29.60;16.90;;;;;;;3.07;84.69;98995.75;131424;1291;23223;-81
2023/11/30 10:38:51;;;;;;;25.70;16.00;;;;;;;3.24;83.86;98993.29;131909;1296;22575;-80
2023/11/30 10:41:53;;;;;;;26.80;16.10;;;;;;;3.46;84.45;98988.86;131576;1298;25364;-80
2023/11/30 10:45:00;;;;;;;27.10;16.20;;;;;;;3.69;83.64;98984.39;131696;1298;22658;-80
2023/11/30 10:48:01;;;;;;;21.60;14.30;;;;;;;3.77;81.98;98984.30;131634;1289;24335;-80
2023/11/30 10:51:04;;;;;;;23.00;14.70;;;;;;;3.71;80.53;98982.47;131533;1298;25269;-82
2023/11/30 10:54:11;;;;;;;21.20;14.00;;;;;;;3.71;79.71;98985.62;131753;1288;22566;-82
2023/11/30 10:57:13;;;;;;;23.80;15.00;;;;;;;3.60;78.38;98984.93;131824;1299;22582;-81
2023/11/30 11:00:15;;;;;;;24.50;16.40;;;;;;;3.33;78.15;98988.38;131746;1298;22585;-82
2023/11/30 11:03:16;;;;;;;28.40;16.90;;;;;;;3.08;78.99;98992.91;131841;1298;22614;-80
2023/11/30 11:06:23;;;;;;;23.40;15.90;;;;;;;2.82;78.09;98997.05;131731;1298;24228;-80
2023/11/30 11:09:23;;;;;;;27.50;18.10;;;;;;;2.42;77.66;98996.98;131682;1294;23843;-81
2023/11/30 11:12:26;;;;;;;26.10;16.50;;;;;;;2.11;78.32;98997.96;131653;1298;22576;-80
2023/11/30 11:15:28;;;;;;;27.00;16.50;;;;;;;1.87;78.43;98998.56;131602;1295;22635;-82
2023/11/30 11:18:31;;;;;;;24.30;16.40;;;;;;;1.75;79.25;99001.48;131633;1295;23350;-80
2023/11/30 11:21:39;;;;;;;29.10;16.80;;;;;;;1.76;79.87;98995.67;131916;1293;24250;-82
2023/11/30 11:24:40;;;;;;;23.90;15.90;;;;;;;1.83;79.91;98995.60;132057;1298;22564;-79
2023/11/30 11:27:41;;;;;;;29.30;18.40;;;;;;;1.92;80.27;98992.20;131546;1298;22623;-84
2023/11/30 11:30:43;;;;;;;28.80;17.10;;;;;;;2.01;79.71;98985.05;131446;1295;22739;-84
2023/11/30 11:33:44;;;;;;;29.80;17.40;;;;;;;2.09;80.11;98984.02;131686;1298;23335;-84
2023/11/30 11:36:45;;;;;;;30.00;17.30;;;;;;;2.21;80.08;98983.92;131824;1298;23314;-82
2023/11/30 11:39:46;;;;;;;31.00;17.80;;;;;;;2.32;80.20;98981.70;131741;1297;22645;-80
2023/11/30 11:42:47;;;;;;;31.60;20.30;;;;;;;2.35;79.55;98977.64;131543;1297;22641;-82
2023/11/30 11:45:48;;;;;;;29.10;17.30;;;;;;;2.34;79.40;98980.86;131694;1298;25100;-82
2023/11/30 11:48:48;;;;;;;30.50;18.80;;;;;;;2.31;79.62;98976.23;131711;1298;22636;-84
2023/11/30 11:51:49;;;;;;;24.20;15.70;;;;;;;2.37;79.34;98970.73;131865;1298;23285;-84
2023/11/30 11:55:00;;;;;;;28.70;16.00;;;;;;;2.37;79.52;98965.33;131396;1298;23294;-82
2023/11/30 11:58:00;;;;;;;27.00;16.40;;;;;;;2.32;79.42;98964.22;131759;1298;23918;-80
2023/11/30 12:01:01;;;;;;;28.90;17.90;;;;;;;2.34;79.41;98962.14;131639;1298;22634;-79
2023/11/30 12:04:01;;;;;;;28.50;17.60;;;;;;;2.43;79.37;98954.13;131642;1292;22633;-81
2023/11/30 12:07:13;;;;;;;28.50;17.20;;;;;;;2.55;79.25;98947.47;131680;1295;22606;-85
2023/11/30 12:10:40;;;;;;;27.10;16.90;;;;;;;2.77;80.09;98944.14;131842;1298;25404;-81
2023/11/30 12:13:41;;;;;;;29.00;17.80;;;;;;;3.02;79.88;98943.45;131592;1298;22595;-83
2023/11/30 12:16:42;;;;;;;25.80;16.60;;;;;;;3.17;79.54;98939.98;131656;1295;22535;-81
2023/11/30 12:19:43;;;;;;;27.30;16.80;;;;;;;3.22;78.88;98927.59;131693;1298;23076;-80
2023/11/30 12:22:45;;;;;;;28.20;16.90;;;;;;;3.25;78.77;98922.05;131288;1283;25661;-85
2023/11/30 12:25:45;;;;;;;30.20;18.70;;;;;;;3.26;78.57;98923.52;131598;1289;22574;-84
2023/11/30 12:28:45;;;;;;;28.60;17.30;;;;;;;3.31;78.40;98921.52;131739;1298;22688;-82
2023/11/30 12:31:46;;;;;;;28.30;17.30;;;;;;;3.34;78.46;98919.04;131778;1298;23026;-83
2023/11/30 12:34:46;;;;;;;27.60;17.70;;;;;;;3.35;78.23;98920.85;131337;1298;23348;-81
2023/11/30 12:37:51;;;;;;;28.00;17.40;;;;;;;3.32;77.91;98920.16;131877;1298;22559;-80
2023/11/30 12:40:51;;;;;;;30.10;19.20;;;;;;;3.26;77.61;98918.59;131638;1301;24320;-84
2023/11/30 12:43:52;;;;;;;;;;;;;;;3.22;77.43;98917.50;131860;1294;23321;-83
2023/11/30 12:46:52;;;;;;;32.60;16.00;;;;;;;3.15;77.32;98915.15;131769;1294;22573;-81
2023/11/30 12:49:53;;;;;;;26.00;16.50;;;;;;;3.08;77.57;98916.48;131968;1294;23223;-82
2023/11/30 12:52:55;;;;;;;29.20;17.40;;;;;;;3.07;77.50;98915.78;131758;1298;22595;-81
2023/11/30 12:55:55;;;;;;;28.20;16.50;;;;;;;3.00;77.52;98916.27;131833;1295;22787;-80
2023/11/30 12:58:56;;;;;;;26.00;16.80;;;;;;;2.95;77.42;98915.55;131351;1298;22613;-81
2023/11/30 13:01:57;;;;;;;26.30;16.50;;;;;;;2.89;77.30;98913.42;131796;1298;22712;-82
2023/11/30 13:04:57;;;;;;;29.60;16.90;;;;;;;2.82;77.16;98912.55;131318;1298;23475;-82
2023/11/30 13:07:58;;;;;;;24.20;15.40;;;;;;;2.78;77.35;98913.46;131857;1294;23352;-82
2023/11/30 13:10:58;;;;;;;23.40;14.40;;;;;;;2.75;77.14;98915.86;131517;1298;22638;-82
2023/11/30 13:14:01;;;;;;;21.70;14.20;;;;;;;2.67;76.93;98915.56;131478;1299;22690;-80
2023/11/30 13:17:01;;;;;;;20.80;13.30;;;;;;;2.55;76.88;98919.13;131781;1297;23494;-83
2023/11/30 13:20:07;;;;;;;23.50;14.50;;;;;;;2.40;76.50;98913.54;131705;1295;22608;-81
2023/11/30 13:23:07;;;;;;;20.00;13.50;;;;;;;2.27;76.52;98905.86;131245;1303;25545;-82
2023/11/30 13:26:08;;;;;;;24.70;14.90;;;;;;;2.14;76.71;98909.74;131717;1295;22556;-84
2023/11/30 13:29:08;;;;;;;36.50;22.00;;;;;;;2.00;76.60;98909.32;131663;1295;22590;-82
2023/11/30 13:32:09;;;;;;;40.70;21.30;;;;;;;1.82;76.54;98909.35;131665;1299;22595;-81
2023/11/30 13:35:09;;;;;;;39.20;22.10;;;;;;;1.73;77.27;98906.36;131582;1295;22624;-82
2023/11/30 13:38:10;;;;;;;47.70;26.00;;;;;;;1.69;77.41;98907.02;131564;1297;24249;-84
2023/11/30 13:41:11;;;;;;;100.00;50.30;;;;;;;1.65;77.43;98919.42;131742;1289;22705;-81
2023/11/30 13:44:13;;;;;;;49.20;26.60;;;;;;;1.58;77.49;98921.30;132558;1298;22658;-80
2023/11/30 13:47:14;;;;;;;178.90;59.90;;;;;;;1.43;77.15;98917.41;131641;1298;25122;-82
2023/11/30 13:50:17;;;;;;;157.80;54.50;;;;;;;1.25;77.36;98922.15;131386;1298;22616;-81